Time;durP1;ratioP1;P1;durP2;ratioP2;P2;SDS_P1;SDS_P2;PMS_P1;PMS_P2;Temp;Humidity;BMP_temperature;BMP_pressure;BME280_temperature;BME280_humidity;BME280_pressure;Samples;Min_cycle;Max_cycle;Signal;HPM_P1;HPM_P2
2023/11/22 00:03:23;;;;;;;;;;;;;;;;;;;;;
2023/11/22 00:06:19;;;;;;;;;;;;;;;;;;;;;
2023/11/22 00:09:19;;;;;;;;;;;;;;;;;;;;;
2023/11/22 00:12:17;;;;;;;9.18;4.13;;;4.90;99.90;;;;;;6139787;23;20100;-90
2023/11/22 00:15:19;;;;;;;8.82;3.55;;;4.90;99.90;;;;;;6206729;22;20514;-89
2023/11/22 00:18:33;;;;;;;8.07;4.03;;;4.90;99.90;;;;;;6263591;22;20043;-89
2023/11/22 00:25:09;;;;;;;7.38;3.78;;;4.90;99.90;;;;;;6198401;22;20020;-90
2023/11/22 00:27:52;;;;;;;7.13;4.05;;;4.80;99.90;;;;;;6182733;22;20460;-89
2023/11/22 00:34:33;;;;;;;10.60;4.55;;;4.80;99.90;;;;;;6268495;22;20020;-88
2023/11/22 00:37:54;;;;;;;;;;;;;;;;;;;;;
2023/11/22 00:44:46;;;;;;;;;;;;;;;;;;;;;
2023/11/22 00:52:24;;;;;;;;;;;;;;;;;;;;;
2023/11/22 00:55:46;;;;;;;8.48;4.63;;;4.70;99.90;;;;;;5901743;24;20017;-90
2023/11/22 00:59:14;;;;;;;10.35;5.30;;;4.70;99.90;;;;;;5847930;24;20505;-90
2023/11/22 01:02:59;;;;;;;;;;;;;;;;;;;;;
2023/11/22 01:10:43;;;;;;;;;;;;;;;;;;;;;
2023/11/22 01:13:50;;;;;;;;;;;;;;;;;;;;;
2023/11/22 01:17:08;;;;;;;;;;;;;;;;;;;;;
2023/11/22 01:20:26;;;;;;;7.45;3.55;;;4.60;99.90;;;;;;6213235;23;20016;-90
2023/11/22 01:23:45;;;;;;;8.43;4.28;;;4.60;99.90;;;;;;6187563;23;20016;-90
2023/11/22 01:27:25;;;;;;;;;;;;;;;;;;;;;
2023/11/22 01:30:34;;;;;;;10.27;4.43;;;4.50;99.90;;;;;;6175549;23;20091;-90
2023/11/22 01:33:27;;;;;;;8.60;4.78;;;4.50;99.90;;;;;;6208368;23;20084;-90
2023/11/22 01:36:31;;;;;;;;;;;;;;;;;;;;;
2023/11/22 01:44:28;;;;;;;7.80;3.53;;;4.50;99.90;;;;;;6155791;23;20539;-90
2023/11/22 01:48:31;;;;;;;7.70;3.45;;;4.50;99.90;;;;;;6067344;23;20018;-90
2023/11/22 01:51:25;;;;;;;7.90;3.40;;;4.40;99.90;;;;;;6161917;23;20017;-90
2023/11/22 01:54:38;;;;;;;;;;;;;;;;;;;;;
2023/11/22 01:58:01;;;;;;;5.32;2.65;;;4.40;99.90;;;;;;6202696;23;20092;-93
2023/11/22 02:01:04;;;;;;;6.45;3.08;;;4.40;99.90;;;;;;6227208;23;20099;-94
2023/11/22 02:09:15;;;;;;;5.85;2.72;;;4.40;99.90;;;;;;6010453;23;20434;-95
2023/11/22 02:12:41;;;;;;;;;;;;;;;;;;;;;
2023/11/22 02:16:07;;;;;;;7.30;3.42;;;4.30;99.90;;;;;;5920732;23;20106;-94
2023/11/22 02:24:14;;;;;;;;;;;;;;;;;;;;;
2023/11/22 02:36:52;;;;;;;5.90;2.78;;;4.20;99.90;;;;;;6251346;23;20045;-94
2023/11/22 02:40:35;;;;;;;;;;;;;;;;;;;;;
2023/11/22 02:43:57;;;;;;;6.60;2.78;;;4.10;99.90;;;;;;6218480;23;20096;-90
2023/11/22 02:47:35;;;;;;;;;;;;;;;;;;;;;
2023/11/22 02:51:37;;;;;;;;;;;;;;;;;;;;;
2023/11/22 02:55:24;;;;;;;;;;;;;;;;;;;;;
2023/11/22 02:59:11;;;;;;;;;;;;;;;;;;;;;
2023/11/22 03:02:55;;;;;;;5.88;2.25;;;3.90;99.90;;;;;;5898620;24;20100;-89
2023/11/22 03:06:35;;;;;;;;;;;;;;;;;;;;;
2023/11/22 03:13:44;;;;;;;;;;;;;;;;;;;;;
2023/11/22 03:21:32;;;;;;;;;;;;;;;;;;;;;
2023/11/22 03:25:02;;;;;;;;;;;;;;;;;;;;;
2023/11/22 03:29:07;;;;;;;;;;;;;;;;;;;;;
2023/11/22 03:33:15;;;;;;;;;;;;;;;;;;;;;
2023/11/22 03:37:10;;;;;;;5.85;1.80;;;3.60;99.90;;;;;;6068546;23;20098;-90
2023/11/22 03:40:50;;;;;;;;;;;;;;;;;;;;;
2023/11/22 03:44:49;;;;;;;;;;;;;;;;;;;;;
2023/11/22 03:48:25;;;;;;;;;;;;;;;;;;;;;
2023/11/22 03:55:37;;;;;;;;;;;;;;;;;;;;;
2023/11/22 03:59:15;;;;;;;;;;;;;;;;;;;;;
2023/11/22 04:03:07;;;;;;;;;;;;;;;;;;;;;
2023/11/22 04:07:23;;;;;;;;;;;;;;;;;;;;;
2023/11/22 04:10:56;;;;;;;3.72;1.70;;;3.50;99.90;;;;;;5965134;23;20026;-90
2023/11/22 04:14:59;;;;;;;;;;;;;;;;;;;;;
2023/11/22 04:18:11;;;;;;;;;;;;;;;;;;;;;
2023/11/22 04:26:23;;;;;;;;;;;;;;;;;;;;;
2023/11/22 04:29:31;;;;;;;5.05;1.67;;;3.30;99.90;;;;;;5958982;24;20100;-94
2023/11/22 04:33:01;;;;;;;4.72;1.63;;;3.30;99.90;;;;;;5955807;24;20016;-94
2023/11/22 04:36:15;;;;;;;6.32;1.92;;;3.30;99.90;;;;;;5939226;24;20028;-94
2023/11/22 04:39:10;;;;;;;;;;;;;;;;;;;;;
2023/11/22 04:42:15;;;;;;;4.00;1.33;;;3.10;99.90;;;;;;6014303;23;20029;-93
2023/11/22 04:45:19;;;;;;;4.57;1.42;;;3.10;99.90;;;;;;5958002;24;20499;-94
2023/11/22 04:48:55;;;;;;;;;;;;;;;;;;;;;
2023/11/22 04:51:49;;;;;;;4.90;1.85;;;3.00;99.90;;;;;;5823692;24;20026;-89
2023/11/22 04:54:45;;;;;;;4.75;1.77;;;3.00;99.90;;;;;;5989128;23;20024;-89
2023/11/22 04:57:47;;;;;;;4.47;1.58;;;3.00;99.90;;;;;;6080685;23;20029;-89
2023/11/22 05:00:22;;;;;;;4.95;2.00;;;2.90;99.90;;;;;;6137560;23;20052;-88
2023/11/22 05:03:00;;;;;;;4.22;1.63;;;2.90;99.90;;;;;;6161593;23;20100;-88
2023/11/22 05:06:32;;;;;;;;;;;;;;;;;;;;;
2023/11/22 05:09:10;;;;;;;5.07;1.85;;;2.90;99.90;;;;;;6184571;23;20045;-88
2023/11/22 05:11:51;;;;;;;4.70;1.70;;;2.80;99.90;;;;;;6160568;23;20013;-88
2023/11/22 05:14:25;;;;;;;5.38;2.00;;;2.80;99.90;;;;;;6185468;23;20028;-87
2023/11/22 05:16:59;;;;;;;5.13;2.00;;;2.80;99.90;;;;;;6185093;23;20024;-88
2023/11/22 05:19:35;;;;;;;4.55;1.67;;;2.80;99.90;;;;;;6160448;23;20021;-89
2023/11/22 05:22:33;;;;;;;5.47;2.30;;;2.80;99.90;;;;;;6183317;23;20025;-90
2023/11/22 05:25:07;;;;;;;6.32;2.25;;;2.80;99.90;;;;;;6183455;23;20021;-88
2023/11/22 05:27:37;;;;;;;5.32;2.00;;;2.80;99.90;;;;;;6186406;23;20021;-88
2023/11/22 05:30:12;;;;;;;5.50;2.63;;;2.80;99.90;;;;;;6187610;23;20466;-88
2023/11/22 05:32:39;;;;;;;4.97;2.05;;;2.80;99.90;;;;;;6138493;23;20017;-88
2023/11/22 05:35:37;;;;;;;4.38;1.70;;;2.80;99.90;;;;;;6187196;23;20024;-89
2023/11/22 05:38:50;;;;;;;4.28;1.73;;;2.80;99.90;;;;;;6161297;23;20099;-89
2023/11/22 05:42:05;;;;;;;5.20;1.87;;;2.90;99.90;;;;;;6187348;23;20096;-88
2023/11/22 05:44:36;;;;;;;5.32;2.20;;;2.90;99.90;;;;;;6192617;23;20021;-88
2023/11/22 05:47:25;;;;;;;;;;;;;;;;;;;;;
2023/11/22 05:50:29;;;;;;;4.00;1.67;;;3.00;99.90;;;;;;6223562;23;20022;-89
2023/11/22 05:53:22;;;;;;;;;;;;;;;;;;;;;
2023/11/22 05:56:01;;;;;;;5.57;1.60;;;3.00;99.90;;;;;;6175534;23;20075;-88
2023/11/22 05:58:41;;;;;;;4.85;2.17;;;3.10;99.90;;;;;;6169198;23;20016;-89
2023/11/22 06:01:36;;;;;;;4.60;1.95;;;3.10;99.90;;;;;;6191870;23;20028;-90
2023/11/22 06:04:25;;;;;;;5.10;1.73;;;3.10;99.90;;;;;;6176576;23;20020;-88
2023/11/22 06:07:23;;;;;;;4.47;1.85;;;3.20;99.90;;;;;;6191545;23;20036;-89
2023/11/22 06:18:00;;;;;;;4.32;1.38;;;3.20;99.90;;;;;;6155587;23;20091;-87
2023/11/22 06:20:28;;;;;;;5.47;2.28;;;3.20;99.90;;;;;;6191913;23;20016;-88
2023/11/22 06:22:55;;;;;;;4.50;1.88;;;3.20;99.90;;;;;;6217419;23;20047;-87
2023/11/22 06:25:25;;;;;;;5.13;1.87;;;3.20;99.90;;;;;;6192141;23;20017;-86
2023/11/22 06:27:55;;;;;;;5.35;2.55;;;3.20;99.90;;;;;;6191417;23;20023;-87
2023/11/22 06:30:27;;;;;;;4.45;1.80;;;3.30;99.90;;;;;;6193024;23;20025;-85
2023/11/22 06:32:54;;;;;;;4.97;2.33;;;3.30;99.90;;;;;;6191683;23;20021;-85
2023/11/22 06:35:22;;;;;;;4.82;2.08;;;3.30;99.90;;;;;;6191689;23;20052;-87
2023/11/22 06:37:52;;;;;;;4.63;2.03;;;3.30;99.90;;;;;;6216445;23;20021;-86
2023/11/22 06:40:22;;;;;;;5.28;1.85;;;3.30;99.90;;;;;;6191630;23;20024;-86
2023/11/22 06:42:54;;;;;;;4.45;1.90;;;3.30;99.90;;;;;;6191977;23;20024;-86
2023/11/22 06:45:22;;;;;;;5.88;2.17;;;3.30;99.90;;;;;;6143651;23;20024;-86
2023/11/22 06:47:50;;;;;;;5.85;2.05;;;3.30;99.90;;;;;;6191349;23;20016;-86
2023/11/22 06:50:31;;;;;;;6.03;2.38;;;3.40;99.90;;;;;;6193929;23;20076;-87
2023/11/22 06:53:03;;;;;;;5.15;2.30;;;3.40;99.90;;;;;;6191878;23;20020;-87
2023/11/22 06:55:32;;;;;;;4.65;1.98;;;3.40;99.90;;;;;;6191878;23;20099;-86
2023/11/22 06:58:00;;;;;;;5.68;2.25;;;3.40;99.90;;;;;;6191391;23;20098;-86
2023/11/22 07:00:28;;;;;;;5.05;1.77;;;3.40;99.90;;;;;;6215861;23;20400;-86
2023/11/22 07:02:56;;;;;;;4.85;1.90;;;3.40;99.90;;;;;;6191397;23;20021;-88
2023/11/22 07:05:23;;;;;;;4.50;1.98;;;3.50;99.90;;;;;;6191184;23;20024;-86
2023/11/22 07:07:54;;;;;;;5.93;2.40;;;3.50;99.90;;;;;;6191161;23;20028;-85
2023/11/22 07:10:22;;;;;;;5.78;2.60;;;3.50;99.90;;;;;;6166277;23;20021;-86
2023/11/22 07:12:52;;;;;;;6.15;2.58;;;3.50;99.90;;;;;;6216158;23;20013;-86
2023/11/22 07:15:21;;;;;;;7.82;2.80;;;3.50;99.90;;;;;;6166990;23;20040;-86
2023/11/22 07:17:51;;;;;;;5.35;2.20;;;3.50;99.90;;;;;;6166621;23;20109;-85
2023/11/22 07:20:28;;;;;;;6.70;2.40;;;3.50;99.90;;;;;;6194000;23;20024;-85
2023/11/22 07:22:58;;;;;;;5.45;2.30;;;3.60;99.90;;;;;;6190694;23;20020;-86
2023/11/22 07:25:29;;;;;;;5.88;2.28;;;3.60;99.90;;;;;;6216048;23;20037;-86
2023/11/22 07:27:56;;;;;;;5.47;2.55;;;3.60;99.90;;;;;;6190860;23;20020;-86
2023/11/22 07:30:25;;;;;;;5.57;2.63;;;3.60;99.90;;;;;;6216182;23;20063;-86
2023/11/22 07:32:54;;;;;;;7.47;3.70;;;3.70;99.90;;;;;;6191220;23;20012;-86
2023/11/22 07:35:22;;;;;;;5.50;2.60;;;3.70;99.90;;;;;;6191088;23;20478;-86
2023/11/22 07:37:54;;;;;;;6.25;2.95;;;3.70;99.90;;;;;;6216280;23;20025;-86
2023/11/22 07:40:22;;;;;;;6.75;2.53;;;3.70;99.90;;;;;;6190932;23;20024;-86
2023/11/22 07:42:49;;;;;;;5.75;2.40;;;3.80;99.90;;;;;;6190717;23;20020;-86
2023/11/22 07:45:22;;;;;;;5.70;2.67;;;3.80;99.90;;;;;;6190975;23;20075;-86
2023/11/22 07:47:53;;;;;;;6.23;2.17;;;3.80;99.90;;;;;;6190829;23;20107;-86
2023/11/22 07:50:21;;;;;;;6.13;2.35;;;3.80;99.90;;;;;;6142096;23;20024;-86
2023/11/22 07:52:50;;;;;;;5.55;2.40;;;3.80;99.90;;;;;;6165539;23;20021;-86
2023/11/22 07:55:18;;;;;;;5.78;2.40;;;3.90;99.90;;;;;;6215080;23;20016;-86
2023/11/22 07:57:45;;;;;;;6.30;2.92;;;3.90;99.90;;;;;;6190651;23;20438;-86
2023/11/22 08:00:19;;;;;;;7.18;2.50;;;3.90;99.90;;;;;;6215587;23;20028;-86
2023/11/22 08:02:49;;;;;;;6.30;2.72;;;3.90;99.90;;;;;;6190686;23;20031;-86
2023/11/22 08:05:17;;;;;;;5.40;2.42;;;4.00;99.90;;;;;;6190552;23;20095;-86
2023/11/22 08:07:45;;;;;;;5.28;2.50;;;4.00;99.90;;;;;;6196860;23;20032;-90
2023/11/22 08:10:18;;;;;;;6.55;2.40;;;4.10;99.90;;;;;;6216402;23;20016;-90
2023/11/22 08:12:49;;;;;;;6.28;2.72;;;4.10;99.90;;;;;;6215619;23;20020;-89
2023/11/22 08:15:19;;;;;;;5.82;2.47;;;4.20;99.90;;;;;;6191801;23;20020;-90
2023/11/22 08:17:47;;;;;;;6.43;2.95;;;4.20;99.90;;;;;;6166986;23;20097;-90
2023/11/22 08:20:17;;;;;;;6.20;2.88;;;4.20;99.90;;;;;;6191211;23;20021;-93
2023/11/22 08:22:58;;;;;;;4.53;1.90;;;4.30;99.90;;;;;;6190202;23;20039;-91
2023/11/22 08:25:29;;;;;;;5.18;2.38;;;4.30;99.90;;;;;;6214749;23;20504;-91
2023/11/22 08:28:14;;;;;;;5.72;2.30;;;4.40;99.90;;;;;;6191245;23;20107;-93
2023/11/22 08:30:57;;;;;;;7.15;2.80;;;4.40;99.90;;;;;;6190979;23;20027;-90
2023/11/22 08:34:19;;;;;;;6.53;3.05;;;4.50;99.90;;;;;;6162377;23;20351;-93
2023/11/22 08:37:50;;;;;;;5.28;2.22;;;4.60;99.90;;;;;;6134257;23;20021;-94
2023/11/22 08:44:24;;;;;;;5.80;2.95;;;4.70;99.90;;;;;;6004539;23;20383;-90
2023/11/22 08:46:54;;;;;;;6.68;2.92;;;4.80;99.90;;;;;;6180308;23;20033;-89
2023/11/22 08:49:49;;;;;;;6.70;3.28;;;4.80;99.90;;;;;;6155652;23;20396;-92
2023/11/22 08:53:01;;;;;;;5.80;2.90;;;4.90;99.90;;;;;;6137142;23;20068;-93
2023/11/22 08:57:30;;;;;;;;;;;;;;;;;;;;;
2023/11/22 09:05:55;;;;;;;5.25;2.60;;;5.10;99.90;;;;;;5927888;24;20035;-95
2023/11/22 09:09:54;;;;;;;7.00;2.75;;;5.10;99.90;;;;;;5886182;24;20101;-94
2023/11/22 09:12:57;;;;;;;5.72;2.53;;;5.10;99.90;;;;;;5897625;24;20012;-93
2023/11/22 09:24:59;;;;;;;4.65;2.17;;;5.20;99.90;;;;;;6122906;23;20080;-94
2023/11/22 09:27:59;;;;;;;5.57;2.17;;;5.20;99.90;;;;;;6045168;23;20168;-92
2023/11/22 09:30:50;;;;;;;6.85;2.95;;;5.20;99.90;;;;;;6042910;23;20023;-92
2023/11/22 09:33:56;;;;;;;5.75;2.53;;;5.20;99.90;;;;;;6044070;23;20488;-93
2023/11/22 09:36:32;;;;;;;4.88;2.15;;;5.30;99.90;;;;;;6067109;23;20418;-94
2023/11/22 09:39:55;;;;;;;6.13;2.53;;;5.40;99.90;;;;;;6065428;23;20026;-94
2023/11/22 09:42:41;;;;;;;5.85;2.70;;;5.50;99.90;;;;;;6028934;23;20025;-94
2023/11/22 09:45:21;;;;;;;7.70;2.70;;;5.50;99.90;;;;;;6169810;23;20017;-94
2023/11/22 09:47:58;;;;;;;5.53;2.58;;;5.60;99.90;;;;;;6197204;23;20013;-93
2023/11/22 09:51:02;;;;;;;5.90;2.80;;;5.70;99.90;;;;;;6176673;23;20017;-93
2023/11/22 09:54:00;;;;;;;6.40;3.05;;;5.80;99.90;;;;;;6168103;23;20014;-89
2023/11/22 09:56:38;;;;;;;6.20;3.15;;;5.80;99.90;;;;;;6160938;23;20021;-91
2023/11/22 09:59:44;;;;;;;5.57;2.95;;;5.90;99.90;;;;;;6125553;23;20072;-91
2023/11/22 10:03:00;;;;;;;;;;;;;;;;;;;;;
2023/11/22 10:06:58;;;;;;;;;;;6.00;99.90;;;;;;6127934;23;20021;-91
2023/11/22 10:09:29;;;;;;;6.03;2.78;;;6.00;99.90;;;;;;6127536;23;19921;-96
2023/11/22 10:12:19;;;;;;;;;;;;;;;;;;;;;
2023/11/22 10:20:27;;;;;;;7.88;3.83;;;6.10;99.90;;;;;;6127769;23;20046;-91
2023/11/22 10:26:57;;;;;;;;;;;;;;;;;;;;;
2023/11/22 10:33:47;;;;;;;6.45;3.22;;;6.30;99.90;;;;;;6164325;23;20021;-91
2023/11/22 10:37:03;;;;;;;5.95;3.08;;;6.30;99.90;;;;;;6165081;23;20079;-90
2023/11/22 10:39:53;;;;;;;7.75;3.60;;;6.30;99.90;;;;;;6134391;23;20096;-93
2023/11/22 10:42:28;;;;;;;7.13;4.00;;;6.30;99.90;;;;;;6161601;23;20464;-91
2023/11/22 10:48:51;;;;;;;8.23;3.50;;;6.50;99.90;;;;;;6144586;23;20020;-93
2023/11/22 10:52:13;;;;;;;6.90;3.40;;;6.60;99.90;;;;;;6147390;23;20021;-91
2023/11/22 10:55:10;;;;;;;10.18;4.60;;;6.70;99.90;;;;;;6157396;23;20534;-93
2023/11/22 10:58:13;;;;;;;8.25;4.43;;;6.70;99.90;;;;;;6157436;23;20031;-93
2023/11/22 11:01:21;;;;;;;7.63;4.05;;;6.70;99.90;;;;;;6177845;23;20022;-90
2023/11/22 11:04:50;;;;;;;7.28;3.33;;;6.70;99.90;;;;;;6078233;23;20105;-94
2023/11/22 11:07:37;;;;;;;8.68;3.65;;;6.70;99.90;;;;;;6072336;23;20027;-89
2023/11/22 11:10:22;;;;;;;6.55;3.67;;;6.60;99.90;;;;;;6096339;23;20022;-91
2023/11/22 11:13:32;;;;;;;6.45;3.55;;;6.60;99.90;;;;;;6053702;23;20142;-91
2023/11/22 11:16:13;;;;;;;5.97;3.20;;;6.60;99.90;;;;;;6072052;23;20027;-89
2023/11/22 11:19:22;;;;;;;7.43;3.80;;;6.50;99.90;;;;;;6076829;23;20430;-90
2023/11/22 11:21:57;;;;;;;7.30;4.07;;;6.50;99.90;;;;;;6073046;23;20032;-90
2023/11/22 11:24:24;;;;;;;9.23;4.03;;;6.50;99.90;;;;;;6049030;23;20022;-88
2023/11/22 11:27:10;;;;;;;6.30;3.60;;;6.50;99.90;;;;;;6051124;23;20110;-89
2023/11/22 11:29:43;;;;;;;5.50;3.13;;;6.50;99.90;;;;;;6049425;23;20022;-90
2023/11/22 11:32:42;;;;;;;6.65;3.53;;;6.50;99.90;;;;;;6072325;23;20022;-91
2023/11/22 11:36:00;;;;;;;8.40;4.30;;;6.60;99.90;;;;;;6149862;23;20022;-90
2023/11/22 11:38:34;;;;;;;5.57;2.75;;;6.70;99.90;;;;;;6133250;23;20021;-86
2023/11/22 11:41:12;;;;;;;6.97;3.25;;;6.70;99.90;;;;;;6170494;23;20100;-87
2023/11/22 11:43:45;;;;;;;7.65;4.13;;;6.70;99.90;;;;;;6107625;23;20112;-89
2023/11/22 11:46:16;;;;;;;7.63;4.15;;;6.70;99.90;;;;;;6131273;23;20049;-86
2023/11/22 11:48:53;;;;;;;6.72;3.72;;;6.70;99.90;;;;;;6130977;23;20105;-85
2023/11/22 11:51:28;;;;;;;6.63;3.42;;;6.70;99.90;;;;;;6155935;23;20039;-86
2023/11/22 11:53:57;;;;;;;7.40;4.13;;;6.70;99.90;;;;;;6155384;23;20476;-85
2023/11/22 11:56:26;;;;;;;7.18;3.72;;;6.70;99.90;;;;;;6131043;23;20024;-85
2023/11/22 11:58:57;;;;;;;6.85;3.75;;;6.70;99.90;;;;;;6131804;23;20112;-85
2023/11/22 12:01:27;;;;;;;7.57;3.60;;;6.70;99.90;;;;;;6131491;23;20029;-85
2023/11/22 12:03:54;;;;;;;7.35;3.95;;;6.70;99.90;;;;;;6131839;23;20025;-85
2023/11/22 12:06:22;;;;;;;7.30;3.75;;;6.70;99.90;;;;;;6155320;23;20027;-83
2023/11/22 12:08:49;;;;;;;7.30;3.95;;;6.80;99.90;;;;;;6130686;23;20069;-85
2023/11/22 12:11:17;;;;;;;8.77;4.82;;;6.80;99.90;;;;;;6131693;23;20100;-84
2023/11/22 12:13:50;;;;;;;9.18;4.55;;;6.80;99.90;;;;;;6155819;23;20084;-83
2023/11/22 12:16:17;;;;;;;10.70;5.97;;;6.70;99.90;;;;;;6157457;23;20048;-84
2023/11/22 12:18:52;;;;;;;9.88;5.30;;;6.70;99.90;;;;;;6156189;23;20264;-87
2023/11/22 12:21:30;;;;;;;10.77;5.55;;;6.70;99.90;;;;;;6131979;23;20041;-87
2023/11/22 12:24:10;;;;;;;10.68;5.72;;;6.60;99.90;;;;;;6154509;23;20021;-87
2023/11/22 12:26:51;;;;;;;11.95;5.55;;;6.60;99.90;;;;;;6133649;23;20024;-87
2023/11/22 12:29:27;;;;;;;10.55;5.20;;;6.60;99.90;;;;;;6155151;23;20032;-81
2023/11/22 12:31:56;;;;;;;9.32;5.20;;;6.60;99.90;;;;;;6083879;23;20021;-84
2023/11/22 12:34:25;;;;;;;11.60;5.95;;;6.60;99.90;;;;;;6155468;23;20068;-86
2023/11/22 12:41:14;;;;;;;14.48;7.72;;;6.70;99.90;;;;;;6040770;23;20178;-89
2023/11/22 12:44:35;;;;;;;13.68;7.88;;;6.60;99.90;;;;;;6066889;23;20066;-91
2023/11/22 12:47:38;;;;;;;17.50;8.77;;;6.60;99.90;;;;;;6012405;23;20019;-88
2023/11/22 12:50:08;;;;;;;16.75;9.57;;;6.60;99.90;;;;;;6043344;23;20101;-89
2023/11/22 12:52:36;;;;;;;17.27;9.38;;;6.70;99.90;;;;;;6149462;23;20029;-89
2023/11/22 12:55:07;;;;;;;14.55;8.07;;;6.70;99.90;;;;;;6160712;23;20013;-90
2023/11/22 12:57:47;;;;;;;14.73;8.35;;;6.80;99.90;;;;;;6186741;23;20024;-94
2023/11/22 13:00:39;;;;;;;16.17;8.68;;;6.90;99.90;;;;;;6140408;23;20017;-90
2023/11/22 13:03:10;;;;;;;12.48;7.03;;;7.00;99.70;;;;;;6137516;23;20025;-93
2023/11/22 13:05:45;;;;;;;13.90;7.30;;;7.10;99.60;;;;;;6136707;23;20100;-88
2023/11/22 13:08:15;;;;;;;14.32;7.57;;;7.20;99.60;;;;;;6185621;23;20280;-93
2023/11/22 13:10:56;;;;;;;13.48;7.28;;;7.20;99.50;;;;;;6137179;23;20091;-93
2023/11/22 13:13:31;;;;;;;13.48;6.90;;;7.30;99.50;;;;;;6162740;23;20021;-92
2023/11/22 13:15:59;;;;;;;15.90;8.05;;;7.20;99.40;;;;;;6160543;23;20021;-92
2023/11/22 13:18:27;;;;;;;16.63;8.55;;;7.20;99.30;;;;;;6189630;23;20025;-92
2023/11/22 13:20:55;;;;;;;16.60;8.25;;;7.20;99.20;;;;;;6170743;23;20316;-92
2023/11/22 13:23:22;;;;;;;14.52;7.70;;;7.20;99.30;;;;;;6151170;23;20021;-91
2023/11/22 13:25:50;;;;;;;15.77;7.15;;;7.10;99.20;;;;;;6176371;23;20021;-92
2023/11/22 13:28:25;;;;;;;13.10;6.65;;;7.10;99.20;;;;;;6190401;23;20009;-92
2023/11/22 13:30:52;;;;;;;15.40;8.85;;;7.00;99.20;;;;;;6161981;23;20056;-92
2023/11/22 13:33:24;;;;;;;16.10;7.85;;;7.00;99.10;;;;;;6186382;23;20017;-92
2023/11/22 13:35:53;;;;;;;16.23;7.90;;;7.00;99.10;;;;;;6139876;23;20021;-92
2023/11/22 13:38:23;;;;;;;14.00;7.28;;;6.90;99.20;;;;;;6215787;23;20021;-87
2023/11/22 13:40:51;;;;;;;16.05;8.55;;;6.90;99.20;;;;;;6177973;23;20025;-88
2023/11/22 13:43:33;;;;;;;15.82;8.27;;;6.90;99.30;;;;;;6143204;23;20104;-89
2023/11/22 13:46:01;;;;;;;15.02;8.63;;;6.90;99.20;;;;;;6162151;23;20072;-89
2023/11/22 13:48:46;;;;;;;12.90;7.22;;;6.80;99.20;;;;;;6138176;23;20031;-90
2023/11/22 13:52:00;;;;;;;15.75;7.47;;;6.80;99.20;;;;;;6052077;23;20046;-91
2023/11/22 13:54:58;;;;;;;;;;;;;;;;;;;;;
2023/11/22 13:58:00;;;;;;;14.90;7.75;;;6.80;99.30;;;;;;6149126;23;20039;-91
2023/11/22 14:00:36;;;;;;;17.77;9.80;;;6.80;99.30;;;;;;6163561;23;20056;-86
2023/11/22 14:03:10;;;;;;;16.75;9.73;;;6.70;99.30;;;;;;6188369;23;20032;-90
2023/11/22 14:06:04;;;;;;;17.55;8.93;;;6.70;99.30;;;;;;6162095;23;20052;-89
2023/11/22 14:09:26;;;;;;;17.38;8.57;;;6.60;99.30;;;;;;6163392;23;20430;-90
2023/11/22 14:16:13;;;;;;;16.58;8.60;;;6.60;99.40;;;;;;6097984;23;20029;-89
2023/11/22 14:18:42;;;;;;;21.33;10.20;;;6.60;99.40;;;;;;6073618;23;20033;-90
2023/11/22 14:21:32;;;;;;;;;;;;;;;;;;;;;
2023/11/22 14:24:25;;;;;;;;;;;;;;;;;;;;;
2023/11/22 14:27:36;;;;;;;21.73;9.88;;;6.60;99.40;;;;;;6095901;23;20105;-88
2023/11/22 14:34:07;;;;;;;21.75;10.80;;;6.60;99.40;;;;;;6155773;23;20025;-89
2023/11/22 14:36:36;;;;;;;19.33;9.13;;;6.60;99.40;;;;;;6162376;23;20021;-88
2023/11/22 14:39:07;;;;;;;21.65;10.70;;;6.50;99.40;;;;;;6162479;23;20020;-87
2023/11/22 14:41:34;;;;;;;21.25;10.80;;;6.60;99.50;;;;;;6161674;23;20076;-88
2023/11/22 14:44:14;;;;;;;23.27;11.18;;;6.50;99.50;;;;;;6187173;23;20045;-92
2023/11/22 14:47:24;;;;;;;21.00;10.40;;;6.50;99.50;;;;;;6186936;23;20016;-96
2023/11/22 14:49:54;;;;;;;22.70;10.65;;;6.50;99.50;;;;;;6148536;23;20040;-90
2023/11/22 14:52:23;;;;;;;20.73;9.73;;;6.50;99.60;;;;;;6187858;23;20462;-89
2023/11/22 14:54:55;;;;;;;22.58;10.70;;;6.50;99.60;;;;;;6165859;23;20017;-92
2023/11/22 14:57:29;;;;;;;25.02;10.50;;;6.50;99.60;;;;;;6187866;23;20021;-89
2023/11/22 15:00:20;;;;;;;20.60;10.00;;;6.50;99.70;;;;;;6167634;23;20017;-87
2023/11/22 15:03:09;;;;;;;21.65;10.45;;;6.50;99.70;;;;;;6211352;23;20021;-92
2023/11/22 15:05:36;;;;;;;25.20;10.35;;;6.50;99.70;;;;;;6186435;23;20076;-88
2023/11/22 15:08:07;;;;;;;27.67;12.93;;;6.50;99.70;;;;;;6187032;23;20384;-89
2023/11/22 15:10:35;;;;;;;24.23;11.25;;;6.50;99.70;;;;;;6162343;23;20092;-88
2023/11/22 15:13:05;;;;;;;23.02;10.32;;;6.50;99.80;;;;;;6161750;23;20017;-87
2023/11/22 15:15:32;;;;;;;22.65;11.00;;;6.50;99.80;;;;;;6161664;23;20025;-86
2023/11/22 15:17:59;;;;;;;26.25;11.98;;;6.40;99.80;;;;;;6186288;23;20080;-88
2023/11/22 15:20:27;;;;;;;26.38;10.90;;;6.40;99.80;;;;;;6161889;23;20025;-86
2023/11/22 15:22:56;;;;;;;24.83;10.63;;;6.40;99.90;;;;;;6161351;23;20028;-85
2023/11/22 15:26:12;;;;;;;23.73;10.65;;;6.40;99.90;;;;;;6186951;23;20408;-94
2023/11/22 15:28:39;;;;;;;21.98;10.00;;;6.40;99.90;;;;;;6211253;23;20040;-85
2023/11/22 15:31:07;;;;;;;21.08;9.50;;;6.30;99.90;;;;;;6161575;23;20021;-85
2023/11/22 15:33:34;;;;;;;29.77;13.10;;;6.30;99.90;;;;;;6161707;23;20017;-88
2023/11/22 15:36:02;;;;;;;31.30;13.50;;;6.30;99.90;;;;;;6185983;23;20436;-84
2023/11/22 15:38:29;;;;;;;37.55;15.55;;;6.30;99.90;;;;;;6160949;23;20451;-85
2023/11/22 15:40:56;;;;;;;43.38;18.42;;;6.30;99.90;;;;;;6160176;23;20025;-84
2023/11/22 15:43:42;;;;;;;39.38;18.40;;;6.30;99.90;;;;;;6185577;23;20065;-82
2023/11/22 15:46:14;;;;;;;38.65;16.52;;;6.20;99.90;;;;;;6185891;23;20058;-84
2023/11/22 15:48:44;;;;;;;32.70;14.82;;;6.20;99.90;;;;;;6185752;23;20037;-85
2023/11/22 15:51:16;;;;;;;31.15;13.32;;;6.10;99.90;;;;;;6161401;23;20079;-86
2023/11/22 15:53:47;;;;;;;28.05;13.13;;;6.10;99.90;;;;;;6186114;23;20088;-87
2023/11/22 15:56:20;;;;;;;23.15;11.45;;;6.10;99.90;;;;;;6210225;23;20044;-87
2023/11/22 15:58:49;;;;;;;29.20;13.35;;;6.10;99.90;;;;;;6161158;23;20021;-85
2023/11/22 16:01:16;;;;;;;29.27;14.10;;;6.10;99.90;;;;;;6186740;23;20021;-86
2023/11/22 16:03:44;;;;;;;31.65;15.25;;;6.00;99.90;;;;;;6162470;23;20091;-88
2023/11/22 16:06:13;;;;;;;35.63;17.00;;;6.00;99.90;;;;;;6161068;23;20024;-86
2023/11/22 16:08:42;;;;;;;32.45;16.70;;;6.00;99.90;;;;;;6185698;23;20017;-87
2023/11/22 16:11:09;;;;;;;35.65;16.85;;;5.90;99.90;;;;;;6185157;23;20104;-86
2023/11/22 16:13:39;;;;;;;33.00;15.40;;;5.90;99.90;;;;;;6137118;23;20092;-86
2023/11/22 16:16:08;;;;;;;34.20;17.52;;;5.80;99.90;;;;;;6185994;23;20017;-86
2023/11/22 16:18:37;;;;;;;35.47;15.75;;;5.90;99.90;;;;;;6161083;23;20103;-88
2023/11/22 16:21:07;;;;;;;29.70;14.68;;;5.90;99.90;;;;;;6161199;23;20356;-85
2023/11/22 16:23:35;;;;;;;30.85;15.55;;;5.90;99.90;;;;;;6160428;23;20060;-85
2023/11/22 16:26:19;;;;;;;;;;;;;;;;;;;;;
2023/11/22 16:28:53;;;;;;;35.70;15.77;;;5.90;99.90;;;;;;6161825;23;20097;-85
2023/11/22 16:31:20;;;;;;;34.05;15.48;;;5.90;99.90;;;;;;6185786;23;20048;-87
2023/11/22 16:33:48;;;;;;;32.35;15.18;;;5.90;99.90;;;;;;6185196;23;20016;-87
2023/11/22 16:36:22;;;;;;;36.30;18.00;;;5.90;99.90;;;;;;6185710;23;20399;-86
2023/11/22 16:38:49;;;;;;;34.35;16.65;;;5.90;99.90;;;;;;6160179;23;20103;-86
2023/11/22 16:41:16;;;;;;;41.50;19.83;;;5.90;99.90;;;;;;6185222;23;20045;-86
2023/11/22 16:43:50;;;;;;;38.55;18.25;;;5.90;99.90;;;;;;6185368;23;20025;-87
2023/11/22 16:46:18;;;;;;;36.78;17.95;;;5.90;99.90;;;;;;6138095;23;20076;-85
2023/11/22 16:48:54;;;;;;;36.22;17.48;;;5.90;99.90;;;;;;6185539;23;20341;-87
2023/11/22 16:51:22;;;;;;;33.60;16.73;;;5.90;99.90;;;;;;6185436;23;20013;-86
2023/11/22 16:53:50;;;;;;;32.63;16.17;;;6.00;99.90;;;;;;6160435;23;20029;-88
2023/11/22 16:56:20;;;;;;;30.00;14.55;;;6.00;99.90;;;;;;6160470;23;20021;-86
2023/11/22 16:58:47;;;;;;;30.55;14.23;;;6.00;99.90;;;;;;6161273;23;20355;-86
2023/11/22 17:01:15;;;;;;;31.90;15.05;;;6.00;99.90;;;;;;6185524;23;20021;-85
2023/11/22 17:03:44;;;;;;;31.77;16.10;;;6.00;99.90;;;;;;6160728;23;20021;-85
2023/11/22 17:06:12;;;;;;;30.67;14.77;;;6.00;99.90;;;;;;6161184;23;20025;-86
2023/11/22 17:08:40;;;;;;;31.42;14.82;;;6.00;99.90;;;;;;6185113;23;20047;-87
2023/11/22 17:11:07;;;;;;;33.47;16.65;;;6.10;99.90;;;;;;6185356;23;20021;-87
2023/11/22 17:13:36;;;;;;;36.45;19.00;;;6.10;99.90;;;;;;6185317;23;20055;-87
2023/11/22 17:16:06;;;;;;;35.30;16.67;;;6.10;99.90;;;;;;6160716;23;20052;-87
2023/11/22 17:18:34;;;;;;;29.98;15.63;;;6.10;99.90;;;;;;6162437;23;20017;-92
2023/11/22 17:21:14;;;;;;;;;;;;;;;;;;;;;
2023/11/22 17:23:57;;;;;;;32.28;14.13;;;6.10;99.90;;;;;;6209633;23;20020;-87
2023/11/22 17:26:24;;;;;;;25.60;13.68;;;6.10;99.90;;;;;;6188973;23;20021;-85
2023/11/22 17:28:52;;;;;;;38.25;17.38;;;6.10;99.90;;;;;;6178417;23;20076;-89
2023/11/22 17:31:30;;;;;;;31.10;15.15;;;6.10;99.90;;;;;;6192406;23;20017;-90
2023/11/22 17:34:00;;;;;;;26.10;12.98;;;6.00;99.90;;;;;;6165768;23;20017;-90
2023/11/22 17:36:27;;;;;;;25.40;12.80;;;6.00;99.90;;;;;;6164414;23;20410;-89
2023/11/22 17:39:02;;;;;;;30.33;15.00;;;6.00;99.90;;;;;;6163979;23;20024;-90
2023/11/22 17:41:29;;;;;;;26.88;13.13;;;6.00;99.90;;;;;;6158485;23;20057;-89
2023/11/22 17:43:57;;;;;;;28.85;14.35;;;6.00;99.90;;;;;;6133910;23;20440;-86